createdAt,value
2023-01-12T00:00:36.567Z,99760.03
2023-01-12T00:03:09.797Z,99767.03
2023-01-12T00:05:43.039Z,99761.75
2023-01-12T00:08:16.540Z,99771.09
2023-01-12T00:10:49.598Z,99767.88
2023-01-12T00:13:24.800Z,99773.16
2023-01-12T00:16:16.156Z,99770.81
2023-01-12T00:18:50.063Z,99775.16
2023-01-12T00:21:22.941Z,99776.09
2023-01-12T00:23:56.067Z,99769.09
2023-01-12T00:26:29.209Z,99775.25
2023-01-12T00:29:03.817Z,99771.75
2023-01-12T00:31:37.066Z,99774.66
2023-01-12T00:34:10.547Z,99779.75
2023-01-12T00:36:44.252Z,99774.47
2023-01-12T00:39:19.166Z,99779.00
2023-01-12T00:42:10.161Z,99775.50
2023-01-12T00:45:02.424Z,99772.78
2023-01-12T00:47:35.726Z,99774.75
2023-01-12T00:50:09.827Z,99774.94
2023-01-12T00:52:42.930Z,99779.38
2023-01-12T00:55:16.291Z,99778.53
2023-01-12T00:57:49.421Z,99775.97
2023-01-12T01:00:24.141Z,99776.66
2023-01-12T01:02:57.379Z,99777.69
2023-01-12T01:05:31.997Z,99780.03
2023-01-12T01:08:05.770Z,99776.75
2023-01-12T01:10:38.697Z,99781.94
2023-01-12T01:13:12.281Z,99780.50
2023-01-12T01:15:47.490Z,99784.09
2023-01-12T01:18:20.846Z,99782.38
2023-01-12T01:20:53.973Z,99782.09
2023-01-12T01:23:28.872Z,99782.97
2023-01-12T01:26:03.510Z,99782.88
2023-01-12T01:28:37.308Z,99777.88
2023-01-12T01:31:12.288Z,99774.25
2023-01-12T01:33:45.589Z,99771.91
2023-01-12T01:36:19.592Z,99777.00
2023-01-12T01:38:52.940Z,99774.53
2023-01-12T01:41:28.059Z,99780.69
2023-01-12T01:44:03.873Z,99779.06
2023-01-12T01:46:46.833Z,99775.31
2023-01-12T01:49:29.226Z,99777.09
2023-01-12T01:52:07.271Z,99784.00
2023-01-12T01:54:44.738Z,99788.53
2023-01-12T01:57:18.119Z,99786.63
2023-01-12T01:59:56.112Z,99784.81
2023-01-12T02:02:30.785Z,99785.78
2023-01-12T02:05:04.720Z,99785.97
2023-01-12T02:07:37.663Z,99778.69
2023-01-12T02:10:11.962Z,99776.16
2023-01-12T02:13:03.680Z,99771.91
2023-01-12T02:16:03.658Z,99778.78
2023-01-12T02:18:47.552Z,99780.59
2023-01-12T02:21:43.117Z,99778.16
2023-01-12T02:24:38.655Z,99779.81
2023-01-12T02:27:27.494Z,99780.59
2023-01-12T02:30:36.422Z,99777.19
2023-01-12T02:33:25.045Z,99782.56
2023-01-12T02:36:07.546Z,99777.19
2023-01-12T02:38:47.782Z,99777.00
2023-01-12T02:41:41.841Z,99779.81
2023-01-12T02:44:22.384Z,99773.88
2023-01-12T02:46:59.907Z,99779.63
2023-01-12T02:49:43.117Z,99770.78
2023-01-12T02:52:18.932Z,99761.78
2023-01-12T02:54:54.975Z,99784.19
2023-01-12T02:57:31.005Z,99782.28
2023-01-12T03:00:07.754Z,99780.50
2023-01-12T03:02:41.016Z,99777.88
2023-01-12T03:05:15.626Z,99771.06
2023-01-12T03:07:53.232Z,99779.06
2023-01-12T03:10:38.682Z,99772.75
2023-01-12T03:13:16.796Z,99775.41
2023-01-12T03:15:53.485Z,99776.44
2023-01-12T03:18:33.178Z,99779.25
2023-01-12T03:21:13.347Z,99781.63
2023-01-12T03:23:50.158Z,99782.47
2023-01-12T03:26:27.931Z,99780.00
2023-01-12T03:29:06.618Z,99784.34
2023-01-12T03:31:40.074Z,99794.75
2023-01-12T03:34:14.001Z,99793.03
2023-01-12T03:36:57.897Z,99792.28
2023-01-12T03:39:38.987Z,99800.88
2023-01-12T03:42:19.083Z,99798.41
2023-01-12T03:45:00.912Z,99811.72
2023-01-12T03:47:36.695Z,99795.69
2023-01-12T03:50:16.652Z,99809.91
2023-01-12T03:52:55.120Z,99799.63
2023-01-12T03:55:30.761Z,99801.25
2023-01-12T03:58:04.110Z,99794.34
2023-01-12T04:00:38.055Z,99810.28
2023-01-12T04:03:13.149Z,99806.88
2023-01-12T04:05:47.362Z,99790.81
2023-01-12T04:08:21.882Z,99807.72
2023-01-12T04:10:55.000Z,99811.31
2023-01-12T04:13:27.765Z,99816.59
2023-01-12T04:16:01.492Z,99822.84
2023-01-12T04:18:35.184Z,99823.69
2023-01-12T04:21:28.291Z,99829.06
2023-01-12T04:24:01.854Z,99828.13
2023-01-12T04:26:35.086Z,99827.94
2023-01-12T04:29:08.245Z,99832.28
2023-01-12T04:31:41.321Z,99828.34
2023-01-12T04:34:14.612Z,99825.19
2023-01-12T04:36:47.816Z,99821.72
2023-01-12T04:39:22.378Z,99827.00
2023-01-12T04:41:55.723Z,99832.84
2023-01-12T04:44:28.902Z,99826.81
2023-01-12T04:47:02.439Z,99834.75
2023-01-12T04:49:35.803Z,99834.16
2023-01-12T04:52:08.859Z,99835.50
2023-01-12T04:54:43.355Z,99827.66
2023-01-12T04:57:16.608Z,99822.75
2023-01-12T04:59:49.795Z,99823.59
2023-01-12T05:02:22.937Z,99829.06
2023-01-12T05:04:56.157Z,99829.06
2023-01-12T05:07:29.406Z,99828.22
2023-01-12T05:10:21.650Z,99823.84
2023-01-12T05:12:55.391Z,99832.28
2023-01-12T05:15:28.946Z,99834.50
2023-01-12T05:18:02.005Z,99834.34
2023-01-12T05:20:35.601Z,99834.50
2023-01-12T05:23:08.764Z,99830.84
2023-01-12T05:25:43.299Z,99832.63
2023-01-12T05:28:16.621Z,99830.16
2023-01-12T05:30:49.826Z,99838.09
2023-01-12T05:33:22.949Z,99838.78
2023-01-12T05:35:56.152Z,99834.50
2023-01-12T05:38:30.455Z,99843.38
2023-01-12T05:41:07.315Z,99844.25
2023-01-12T05:43:59.916Z,99841.50
2023-01-12T05:46:34.343Z,99846.88
2023-01-12T05:49:07.801Z,99841.50
2023-01-12T05:51:40.912Z,99851.28
2023-01-12T05:54:14.163Z,99850.28
2023-01-12T05:56:49.926Z,99849.44
2023-01-12T05:59:23.166Z,99853.84
2023-01-12T06:01:56.263Z,99860.66
2023-01-12T06:04:29.538Z,99866.63
2023-01-12T06:07:02.764Z,99855.47
2023-01-12T06:09:36.012Z,99856.22
2023-01-12T06:12:30.653Z,99867.56
2023-01-12T06:15:03.770Z,99868.41
2023-01-12T06:17:36.953Z,99861.91
2023-01-12T06:20:14.951Z,99867.47
2023-01-12T06:22:48.132Z,99861.16
2023-01-12T06:25:21.347Z,99868.13
2023-01-12T06:27:55.921Z,99857.47
2023-01-12T06:30:29.054Z,99861.00
2023-01-12T06:33:03.582Z,99867.91
2023-01-12T06:35:36.843Z,99864.38
2023-01-12T06:38:10.131Z,99864.19
2023-01-12T06:40:43.395Z,99862.44
2023-01-12T06:43:18.132Z,99880.84
2023-01-12T06:45:54.479Z,99872.81
2023-01-12T06:48:38.641Z,99871.94
2023-01-12T06:51:12.669Z,99874.53
2023-01-12T06:53:45.959Z,99873.56
2023-01-12T06:56:19.176Z,99880.47
2023-01-12T06:58:53.834Z,99874.81
2023-01-12T07:01:27.835Z,99884.47
2023-01-12T07:04:01.088Z,99876.34
2023-01-12T07:06:34.573Z,99879.78
2023-01-12T07:09:07.771Z,99876.06
2023-01-12T07:11:41.033Z,99886.75
2023-01-12T07:14:15.965Z,99883.06
2023-01-12T07:16:49.449Z,99877.69
2023-01-12T07:19:23.635Z,99886.41
2023-01-12T07:21:56.807Z,99887.25
2023-01-12T07:24:29.952Z,99888.78
2023-01-12T07:27:03.070Z,99896.81
2023-01-12T07:29:37.881Z,99900.00
2023-01-12T07:32:11.015Z,99866.63
2023-01-12T07:34:44.956Z,99901.72
2023-01-12T07:37:18.276Z,99899.81
2023-01-12T07:39:51.489Z,99903.81
2023-01-12T07:42:24.645Z,99901.25
2023-01-12T07:44:59.100Z,99912.63
2023-01-12T07:47:32.631Z,99906.97
2023-01-12T07:50:07.039Z,99906.13
2023-01-12T07:52:41.475Z,99906.50
2023-01-12T07:55:16.646Z,99912.47
2023-01-12T07:57:55.660Z,99918.59
2023-01-12T08:00:31.859Z,99919.34
2023-01-12T08:03:07.071Z,99921.06
2023-01-12T08:05:40.844Z,99927.03
2023-01-12T08:08:14.294Z,99927.03
2023-01-12T08:10:50.217Z,99924.09
2023-01-12T08:13:25.700Z,99924.41
2023-01-12T08:16:06.366Z,99928.53
2023-01-12T08:18:45.349Z,99935.72
2023-01-12T08:21:23.210Z,99935.53
2023-01-12T08:23:59.544Z,99941.13
2023-01-12T08:26:37.276Z,99943.56
2023-01-12T08:29:15.203Z,99942.25
2023-01-12T08:31:50.346Z,99954.34
2023-01-12T08:37:23.198Z,99940.50
2023-01-12T08:39:56.631Z,99948.47
2023-01-12T08:42:31.943Z,99952.63
2023-01-12T08:45:07.984Z,99950.78
2023-01-12T08:47:44.509Z,99960.69
2023-01-12T08:50:17.794Z,99965.69
2023-01-12T08:52:53.588Z,99962.75
2023-01-12T08:55:26.783Z,99957.28
2023-01-12T08:58:00.379Z,99963.50
2023-01-12T09:00:33.464Z,99957.75
2023-01-12T09:03:08.519Z,99958.91
2023-01-12T09:05:41.669Z,99951.91
2023-01-12T09:08:14.787Z,99954.44
2023-01-12T09:10:47.939Z,99951.63
2023-01-12T09:13:21.713Z,99949.81
2023-01-12T09:16:11.230Z,99945.66
2023-01-12T09:18:47.470Z,99945.66
2023-01-12T09:21:22.772Z,99947.63
2023-01-12T09:23:56.506Z,99944.06
2023-01-12T09:26:32.032Z,99953.75
2023-01-12T09:29:06.076Z,99943.97
2023-01-12T09:31:40.059Z,99948.31
2023-01-12T09:34:15.180Z,99941.88
2023-01-12T09:36:52.247Z,99942.56
2023-01-12T09:39:28.395Z,99942.25
2023-01-12T09:42:19.475Z,99936.69
2023-01-12T09:45:11.312Z,99937.28
2023-01-12T09:47:54.947Z,99912.22
2023-01-12T09:50:33.642Z,99930.56
2023-01-12T09:53:14.030Z,99933.19
2023-01-12T09:55:55.188Z,99931.41
2023-01-12T09:59:07.886Z,99923.16
2023-01-12T10:01:41.218Z,99927.22
2023-01-12T10:04:15.338Z,99933.94
2023-01-12T10:06:50.130Z,99921.47
2023-01-12T10:09:24.550Z,99912.84
2023-01-12T10:12:09.183Z,99920.59
2023-01-12T10:14:58.847Z,99919.38
2023-01-12T10:17:50.581Z,99917.31
2023-01-12T10:20:30.815Z,99912.00
2023-01-12T10:23:14.559Z,99917.94
2023-01-12T10:25:49.470Z,99915.41
2023-01-12T10:28:26.763Z,99913.03
2023-01-12T10:31:01.686Z,99911.03
2023-01-12T10:33:36.157Z,99899.19
2023-01-12T10:36:11.184Z,99900.75
2023-01-12T10:38:59.558Z,99898.00
2023-01-12T10:41:34.597Z,99890.63
2023-01-12T10:44:15.739Z,99889.81
2023-01-12T10:47:09.725Z,99889.81
2023-01-12T10:49:42.988Z,99886.84
2023-01-12T10:52:30.578Z,99886.66
2023-01-12T10:55:06.522Z,99884.97
2023-01-12T10:57:44.952Z,99880.22
2023-01-12T11:00:24.174Z,99879.25
2023-01-12T11:03:00.403Z,99873.34
2023-01-12T11:05:37.569Z,99881.13
2023-01-12T11:08:23.699Z,99880.34
2023-01-12T11:10:58.317Z,99874.44
2023-01-12T11:13:36.605Z,99870.41
2023-01-12T11:16:19.114Z,99872.88
2023-01-12T11:19:11.849Z,99871.81
2023-01-12T11:21:50.244Z,99877.19
2023-01-12T11:47:42.013Z,99857.38
2023-01-12T11:50:21.674Z,99845.38
2023-01-12T11:52:56.842Z,99848.78
2023-01-12T11:55:47.975Z,99849.00
2023-01-12T11:58:27.864Z,99852.28
2023-01-12T12:01:09.255Z,99848.91
2023-01-12T12:04:01.698Z,99844.22
2023-01-12T12:06:47.039Z,99846.66
2023-01-12T12:09:40.269Z,99841.19
2023-01-12T12:12:23.807Z,99835.88
2023-01-12T12:15:13.589Z,99836.97
2023-01-12T12:17:56.513Z,99839.72
2023-01-12T12:20:37.507Z,99840.03
2023-01-12T12:23:23.276Z,99833.66
2023-01-12T12:26:09.765Z,99831.00
2023-01-12T12:28:58.299Z,99830.19
2023-01-12T12:31:55.317Z,99829.31
2023-01-12T12:34:51.617Z,99824.00
2023-01-12T12:37:38.911Z,99818.69
2023-01-12T12:40:24.920Z,99821.25
2023-01-12T12:43:26.926Z,99810.44
2023-01-12T12:46:12.183Z,99821.78
2023-01-12T12:48:53.815Z,99814.66
2023-01-12T12:51:30.076Z,99818.69
2023-01-12T12:54:07.792Z,99810.84
2023-01-12T12:56:41.979Z,99819.56
2023-01-12T12:59:46.512Z,99817.63
2023-01-12T13:02:37.938Z,99821.13
2023-01-12T13:05:11.648Z,99827.41
2023-01-12T13:07:53.156Z,99828.03
2023-01-12T13:10:35.427Z,99802.97
2023-01-12T13:13:30.192Z,99833.66
2023-01-12T13:16:43.776Z,99836.53
2023-01-12T13:19:37.491Z,99833.13
2023-01-12T13:22:29.059Z,99826.97
2023-01-12T13:25:04.395Z,99832.16
2023-01-12T13:27:55.741Z,99835.69
2023-01-12T13:30:42.496Z,99814.66
2023-01-12T13:33:27.559Z,99818.50
2023-01-12T13:36:10.837Z,99838.63
2023-01-12T13:38:58.880Z,99833.31
2023-01-12T13:41:52.153Z,99831.88
2023-01-12T13:44:34.793Z,99837.16
2023-01-12T13:47:11.399Z,99838.94
2023-01-12T13:49:48.160Z,99837.34
2023-01-12T13:52:25.999Z,99838.44
2023-01-12T13:54:59.618Z,99841.19
2023-01-12T13:57:33.191Z,99843.84
2023-01-12T14:00:17.209Z,99844.78
2023-01-12T14:02:51.168Z,99838.59
2023-01-12T14:05:37.955Z,99843.84
2023-01-12T14:08:50.143Z,99839.47
2023-01-12T14:11:46.187Z,99852.63
2023-01-12T14:14:50.662Z,99849.88
2023-01-12T14:17:47.108Z,99845.72
2023-01-12T14:20:23.152Z,99847.63
2023-01-12T14:23:14.372Z,99857.47
2023-01-12T14:25:48.771Z,99872.66
2023-01-12T14:28:24.436Z,99865.66
2023-01-12T14:30:58.373Z,99877.19
2023-01-12T14:33:41.083Z,99874.75
2023-01-12T14:36:18.321Z,99874.53
2023-01-12T14:38:53.444Z,99880.81
2023-01-12T14:41:45.631Z,99879.22
2023-01-12T14:44:39.531Z,99881.13
2023-01-12T14:47:24.597Z,99859.22
2023-01-12T14:50:14.867Z,99885.75
2023-01-12T14:52:49.903Z,99892.00
2023-01-12T14:55:37.926Z,99884.16
2023-01-12T14:58:22.405Z,99875.69
2023-01-12T15:00:55.983Z,99880.09
2023-01-12T15:03:39.356Z,99892.53
2023-01-12T15:06:18.422Z,99896.00
2023-01-12T15:09:00.396Z,99898.66
2023-01-12T15:11:37.229Z,99900.56
2023-01-12T15:14:24.979Z,99884.31
2023-01-12T15:17:16.610Z,99900.88
2023-01-12T15:20:07.287Z,99894.69
2023-01-12T15:22:59.410Z,99900.88
2023-01-12T15:25:39.053Z,99900.00
2023-01-12T15:28:12.313Z,99917.81
2023-01-12T15:30:45.978Z,99912.72
2023-01-12T15:33:19.536Z,99907.53
2023-01-12T15:35:53.196Z,99908.56
2023-01-12T15:38:29.122Z,99905.06
2023-01-12T15:41:02.557Z,99898.38
2023-01-12T15:43:36.287Z,99906.59
2023-01-12T15:46:19.354Z,99902.53
2023-01-12T15:48:52.923Z,99907.81
2023-01-12T15:51:26.432Z,99910.47
2023-01-12T15:54:01.441Z,99910.56
2023-01-12T15:56:35.316Z,99911.41
2023-01-12T15:59:08.735Z,99906.13
2023-01-12T16:01:46.702Z,99905.44
2023-01-12T16:04:42.092Z,99911.41
2023-01-12T16:07:15.781Z,99898.94
2023-01-12T16:09:50.964Z,99913.31
2023-01-12T16:12:26.149Z,99919.56
2023-01-12T16:15:01.063Z,99915.19
2023-01-12T16:17:35.556Z,99910.00
2023-01-12T16:20:10.454Z,99916.16
2023-01-12T16:22:43.948Z,99916.25
2023-01-12T16:25:18.916Z,99926.84
2023-01-12T16:27:52.219Z,99916.72
2023-01-12T16:30:25.458Z,99922.84
2023-01-12T16:32:59.133Z,99928.75
2023-01-12T16:35:34.288Z,99932.44
2023-01-12T16:38:07.531Z,99932.59
2023-01-12T16:40:43.422Z,99936.19
2023-01-12T16:43:20.959Z,99935.19
2023-01-12T16:45:54.529Z,99928.25
2023-01-12T16:48:27.960Z,99936.19
2023-01-12T16:51:01.849Z,99939.03
2023-01-12T16:53:35.099Z,99936.59
2023-01-12T16:56:12.164Z,99935.66
2023-01-12T16:58:48.424Z,99941.78
2023-01-12T17:01:24.290Z,99940.75
2023-01-12T17:03:58.267Z,99939.91
2023-01-12T17:06:31.996Z,99948.69
2023-01-12T17:09:06.467Z,99948.69
2023-01-12T17:11:42.809Z,99950.50
2023-01-12T17:14:26.965Z,99950.50
2023-01-12T17:17:03.310Z,99958.44
2023-01-12T17:19:37.932Z,99950.03
2023-01-12T17:22:12.519Z,99963.81
2023-01-12T17:24:46.293Z,99961.94
2023-01-12T17:27:21.343Z,99964.69
2023-01-12T17:29:54.835Z,99959.50
2023-01-12T17:32:28.278Z,99963.91
2023-01-12T17:35:04.417Z,99968.28
2023-01-12T17:37:38.033Z,99965.81
2023-01-12T17:40:12.592Z,99971.88
2023-01-12T17:43:02.491Z,99975.38
2023-01-12T17:45:42.691Z,99973.78
2023-01-12T17:48:19.265Z,99965.91
2023-01-12T17:50:53.163Z,99973.47
2023-01-12T17:53:26.351Z,99971.59
2023-01-12T17:56:03.926Z,99969.69
2023-01-12T17:58:38.700Z,99971.41
2023-01-12T18:01:12.915Z,99967.78
2023-01-12T18:03:46.689Z,99969.59
2023-01-12T18:06:26.510Z,99971.41
2023-01-12T18:09:00.951Z,99968.00
2023-01-12T18:11:34.625Z,99972.16
2023-01-12T18:14:09.654Z,99968.19
2023-01-12T18:16:43.131Z,99972.53
2023-01-12T18:19:16.806Z,99974.50
2023-01-12T18:21:51.370Z,99979.75
2023-01-12T18:24:24.915Z,99978.31
2023-01-12T18:26:59.413Z,99971.88
2023-01-12T18:29:34.734Z,99980.88
2023-01-12T18:32:09.255Z,99981.06
2023-01-12T18:34:43.847Z,99974.16
2023-01-12T18:37:18.087Z,99981.06
2023-01-12T18:39:51.505Z,99981.72
2023-01-12T18:42:42.489Z,99977.94
2023-01-12T18:45:18.603Z,99973.66
2023-01-12T18:48:10.267Z,99974.59
2023-01-12T18:51:03.010Z,99980.88
2023-01-12T18:53:36.804Z,99985.97
2023-01-12T18:56:11.427Z,99992.00
2023-01-12T18:58:45.947Z,99994.41
2023-01-12T19:01:22.064Z,99983.13
2023-01-12T19:03:55.960Z,99989.94
2023-01-12T19:06:42.893Z,99987.19
2023-01-12T19:09:34.609Z,99993.16
2023-01-12T19:12:08.880Z,100000.34
2023-01-12T19:15:00.811Z,100004.13
2023-01-12T19:17:36.935Z,99999.69
2023-01-12T19:20:15.754Z,100001.28
2023-01-12T19:23:09.711Z,100000.44
2023-01-12T19:26:09.628Z,100004.13
2023-01-12T19:28:44.384Z,99996.00
2023-01-12T19:31:17.838Z,99990.47
2023-01-12T19:33:53.429Z,99998.19
2023-01-12T19:36:28.729Z,99997.50
2023-01-12T19:39:07.494Z,100004.50
2023-01-12T19:41:59.888Z,99999.22
2023-01-12T19:44:34.904Z,100016.91
2023-01-12T19:47:10.113Z,100007.25
2023-01-12T19:49:45.221Z,100015.94
2023-01-12T19:52:20.247Z,100019.53
2023-01-12T19:54:54.211Z,100017.66
2023-01-12T19:57:27.918Z,100009.59
2023-01-12T20:00:02.763Z,100003.53
2023-01-12T20:02:36.766Z,100018.22
2023-01-12T20:05:13.845Z,100029.19
2023-01-12T20:07:47.687Z,100026.63
2023-01-12T20:10:25.228Z,100027.56
2023-01-12T20:12:59.476Z,100023.66
2023-01-12T20:15:33.850Z,100029.16
2023-01-12T20:18:09.011Z,100021.13
2023-01-12T20:20:45.459Z,100028.97
2023-01-12T20:23:21.648Z,100027.94
2023-01-12T20:25:56.544Z,100028.97
2023-01-12T20:28:31.077Z,100033.59
2023-01-12T20:31:10.166Z,100030.03
2023-01-12T20:33:44.057Z,100033.59
2023-01-12T20:36:19.728Z,100034.91
2023-01-12T20:38:53.677Z,100030.34
2023-01-12T20:41:27.224Z,100035.31
2023-01-12T20:44:00.664Z,100033.59
2023-01-12T20:46:34.667Z,100033.09
2023-01-12T20:49:08.141Z,100040.38
2023-01-12T20:51:43.235Z,100035.38
2023-01-12T20:54:20.619Z,100037.56
2023-01-12T20:56:53.879Z,100038.59
2023-01-12T20:59:27.341Z,100032.25
2023-01-12T21:02:01.790Z,100035.66
2023-01-12T21:04:36.533Z,100044.44
2023-01-12T21:07:12.943Z,100037.59
2023-01-12T21:09:46.365Z,100036.31
2023-01-12T21:12:24.707Z,100050.09
2023-01-12T21:15:00.206Z,100038.44
2023-01-12T21:17:36.066Z,100043.81
2023-01-12T21:20:11.424Z,100040.34
2023-01-12T21:22:46.273Z,100037.78
2023-01-12T21:25:20.117Z,100046.47
2023-01-12T21:27:53.279Z,100040.34
2023-01-12T21:30:26.682Z,100047.53
2023-01-12T21:33:00.739Z,100036.94
2023-01-12T21:35:34.444Z,100041.97
2023-01-12T21:38:09.033Z,100037.41
2023-01-12T21:40:42.467Z,100040.06
2023-01-12T21:43:18.026Z,100035.56
2023-01-12T21:45:53.221Z,100039.41
2023-01-12T21:48:26.711Z,100032.41
2023-01-12T21:51:04.108Z,100030.78
2023-01-12T21:53:38.729Z,100021.06
2023-01-12T21:56:13.319Z,100021.72
2023-01-12T21:58:46.470Z,100027.56
2023-01-12T22:01:20.172Z,100030.13
2023-01-12T22:03:56.911Z,100030.59
2023-01-12T22:06:31.248Z,100029.06
2023-01-12T22:09:06.019Z,100028.59
2023-01-12T22:11:39.930Z,100029.63
2023-01-12T22:14:13.722Z,100027.38
2023-01-12T22:16:47.771Z,100026.13
2023-01-12T22:19:21.375Z,100023.22
2023-01-12T22:21:54.830Z,100018.56
2023-01-12T22:24:29.393Z,100019.13
2023-01-12T22:27:03.532Z,100018.94
2023-01-12T22:29:36.591Z,100015.41
2023-01-12T22:32:09.866Z,100016.47
2023-01-12T22:34:43.383Z,100014.84
2023-01-12T22:37:16.637Z,100011.38
2023-01-12T22:39:51.233Z,100007.69
2023-01-12T22:42:46.016Z,99994.59
2023-01-12T22:45:19.518Z,100009.47
2023-01-12T22:47:53.805Z,100009.47
2023-01-12T22:50:26.974Z,100009.28
2023-01-12T22:53:00.561Z,100015.53
2023-01-12T22:55:35.170Z,100003.34
2023-01-12T22:58:09.326Z,100002.50
2023-01-12T23:00:43.964Z,100009.19
2023-01-12T23:03:17.506Z,100006.44
2023-01-12T23:05:55.995Z,100001.72
2023-01-12T23:08:29.646Z,99998.50
2023-01-12T23:11:06.422Z,100005.91
2023-01-12T23:13:40.966Z,99998.88
2023-01-12T23:16:16.228Z,100003.06
2023-01-12T23:18:50.399Z,100010.34
2023-01-12T23:21:24.964Z,100003.44
2023-01-12T23:23:59.892Z,100000.59
2023-01-12T23:26:34.823Z,99996.34
2023-01-12T23:29:08.455Z,99998.22
2023-01-12T23:31:41.810Z,99999.94
2023-01-12T23:34:15.352Z,99994.47
2023-01-12T23:36:48.634Z,99997.03
2023-01-12T23:39:22.092Z,100000.59
2023-01-12T23:41:57.115Z,100003.44
2023-01-12T23:44:30.541Z,100001.81
2023-01-12T23:47:06.483Z,99998.13
2023-01-12T23:49:39.646Z,100001.16
2023-01-12T23:52:12.887Z,100007.78
2023-01-12T23:54:46.483Z,100007.94
2023-01-12T23:57:22.357Z,100011.72
2023-01-12T23:59:56.251Z,100004.75
